sensor_id;sensor_type;location;lat;lon;timestamp;temperature;humidity
6672;DHT22;3372;48.690;12.362;2022-09-17T00:00:21;13.70;60.10
6672;DHT22;3372;48.690;12.362;2022-09-17T00:02:53;13.80;59.30
6672;DHT22;3372;48.690;12.362;2022-09-17T00:05:21;13.80;59.10
6672;DHT22;3372;48.690;12.362;2022-09-17T00:07:48;13.80;58.70
6672;DHT22;3372;48.690;12.362;2022-09-17T00:10:14;13.70;58.60
6672;DHT22;3372;48.690;12.362;2022-09-17T00:12:39;13.50;59.10
6672;DHT22;3372;48.690;12.362;2022-09-17T00:15:06;13.40;58.30
6672;DHT22;3372;48.690;12.362;2022-09-17T00:17:31;13.50;57.80
6672;DHT22;3372;48.690;12.362;2022-09-17T00:19:57;13.50;58.00
6672;DHT22;3372;48.690;12.362;2022-09-17T00:22:23;13.40;58.10
6672;DHT22;3372;48.690;12.362;2022-09-17T00:24:48;13.50;57.30
6672;DHT22;3372;48.690;12.362;2022-09-17T00:27:14;13.50;56.70
6672;DHT22;3372;48.690;12.362;2022-09-17T00:29:39;13.50;55.80
6672;DHT22;3372;48.690;12.362;2022-09-17T00:32:05;13.50;56.30
6672;DHT22;3372;48.690;12.362;2022-09-17T00:34:31;13.60;55.60
6672;DHT22;3372;48.690;12.362;2022-09-17T00:36:56;13.40;54.80
6672;DHT22;3372;48.690;12.362;2022-09-17T00:39:22;13.40;53.70
6672;DHT22;3372;48.690;12.362;2022-09-17T00:41:47;13.40;55.50
6672;DHT22;3372;48.690;12.362;2022-09-17T00:47:04;13.50;55.00
6672;DHT22;3372;48.690;12.362;2022-09-17T00:49:30;13.50;54.30
6672;DHT22;3372;48.690;12.362;2022-09-17T00:52:01;13.50;54.50
6672;DHT22;3372;48.690;12.362;2022-09-17T00:54:28;13.30;52.50
6672;DHT22;3372;48.690;12.362;2022-09-17T00:56:54;13.00;55.50
6672;DHT22;3372;48.690;12.362;2022-09-17T00:59:21;13.10;55.30
6672;DHT22;3372;48.690;12.362;2022-09-17T01:01:47;13.20;55.20
6672;DHT22;3372;48.690;12.362;2022-09-17T01:04:17;13.20;55.40
6672;DHT22;3372;48.690;12.362;2022-09-17T01:09:42;13.30;54.00
6672;DHT22;3372;48.690;12.362;2022-09-17T01:15:35;13.20;54.10
6672;DHT22;3372;48.690;12.362;2022-09-17T01:21:40;13.20;53.60
6672;DHT22;3372;48.690;12.362;2022-09-17T01:27:10;13.20;52.40
6672;DHT22;3372;48.690;12.362;2022-09-17T01:32:53;13.00;52.50
6672;DHT22;3372;48.690;12.362;2022-09-17T01:35:39;12.90;52.00
6672;DHT22;3372;48.690;12.362;2022-09-17T01:38:27;12.90;52.00
6672;DHT22;3372;48.690;12.362;2022-09-17T01:41:10;12.80;51.80
6672;DHT22;3372;48.690;12.362;2022-09-17T01:46:51;12.90;51.20
6672;DHT22;3372;48.690;12.362;2022-09-17T01:49:18;12.70;50.10
6672;DHT22;3372;48.690;12.362;2022-09-17T01:51:47;12.60;49.80
6672;DHT22;3372;48.690;12.362;2022-09-17T01:57:07;12.40;51.00
6672;DHT22;3372;48.690;12.362;2022-09-17T01:59:35;12.20;51.40
6672;DHT22;3372;48.690;12.362;2022-09-17T02:05:11;12.50;52.10
6672;DHT22;3372;48.690;12.362;2022-09-17T02:07:41;12.60;51.80
6672;DHT22;3372;48.690;12.362;2022-09-17T02:10:11;12.50;51.70
6672;DHT22;3372;48.690;12.362;2022-09-17T02:12:41;12.50;51.60
6672;DHT22;3372;48.690;12.362;2022-09-17T02:15:13;12.50;51.70
6672;DHT22;3372;48.690;12.362;2022-09-17T02:17:53;12.50;51.70
6672;DHT22;3372;48.690;12.362;2022-09-17T02:20:25;12.50;51.70
6672;DHT22;3372;48.690;12.362;2022-09-17T02:22:59;12.50;51.10
6672;DHT22;3372;48.690;12.362;2022-09-17T02:25:39;12.30;51.90
6672;DHT22;3372;48.690;12.362;2022-09-17T02:28:39;12.30;51.80
6672;DHT22;3372;48.690;12.362;2022-09-17T02:31:05;12.40;51.70
6672;DHT22;3372;48.690;12.362;2022-09-17T02:33:32;12.10;51.50
6672;DHT22;3372;48.690;12.362;2022-09-17T02:36:00;12.20;52.80
6672;DHT22;3372;48.690;12.362;2022-09-17T02:38:27;12.30;52.20
6672;DHT22;3372;48.690;12.362;2022-09-17T02:51:59;12.20;51.40
6672;DHT22;3372;48.690;12.362;2022-09-17T02:54:42;12.20;51.40
6672;DHT22;3372;48.690;12.362;2022-09-17T02:57:22;12.10;52.00
6672;DHT22;3372;48.690;12.362;2022-09-17T03:02:26;12.20;52.10
6672;DHT22;3372;48.690;12.362;2022-09-17T03:04:53;12.20;51.70
6672;DHT22;3372;48.690;12.362;2022-09-17T03:07:22;12.20;51.50
6672;DHT22;3372;48.690;12.362;2022-09-17T03:09:48;12.20;51.50
6672;DHT22;3372;48.690;12.362;2022-09-17T03:12:14;12.20;51.40
6672;DHT22;3372;48.690;12.362;2022-09-17T03:14:40;12.20;51.40
6672;DHT22;3372;48.690;12.362;2022-09-17T03:17:05;12.30;51.50
6672;DHT22;3372;48.690;12.362;2022-09-17T03:19:31;12.20;51.40
6672;DHT22;3372;48.690;12.362;2022-09-17T03:21:57;12.20;51.40
6672;DHT22;3372;48.690;12.362;2022-09-17T03:24:22;12.20;51.40
6672;DHT22;3372;48.690;12.362;2022-09-17T03:26:48;12.30;51.50
6672;DHT22;3372;48.690;12.362;2022-09-17T03:29:14;12.30;51.50
6672;DHT22;3372;48.690;12.362;2022-09-17T03:31:39;12.10;51.30
6672;DHT22;3372;48.690;12.362;2022-09-17T03:34:05;12.10;51.60
6672;DHT22;3372;48.690;12.362;2022-09-17T03:36:32;12.10;51.90
6672;DHT22;3372;48.690;12.362;2022-09-17T03:38:58;12.10;52.80
6672;DHT22;3372;48.690;12.362;2022-09-17T03:41:24;12.10;51.90
6672;DHT22;3372;48.690;12.362;2022-09-17T03:43:50;11.90;52.70
6672;DHT22;3372;48.690;12.362;2022-09-17T03:46:16;11.80;52.90
6672;DHT22;3372;48.690;12.362;2022-09-17T03:48:42;11.80;53.80
6672;DHT22;3372;48.690;12.362;2022-09-17T03:51:08;11.90;54.20
6672;DHT22;3372;48.690;12.362;2022-09-17T03:53:33;12.00;53.70
6672;DHT22;3372;48.690;12.362;2022-09-17T03:56:01;12.00;53.30
6672;DHT22;3372;48.690;12.362;2022-09-17T03:58:27;11.90;52.50
6672;DHT22;3372;48.690;12.362;2022-09-17T04:00:54;11.90;53.00
6672;DHT22;3372;48.690;12.362;2022-09-17T04:03:25;11.70;54.60
6672;DHT22;3372;48.690;12.362;2022-09-17T04:05:52;11.80;54.40
6672;DHT22;3372;48.690;12.362;2022-09-17T04:08:18;11.90;53.00
6672;DHT22;3372;48.690;12.362;2022-09-17T04:10:44;12.00;52.00
6672;DHT22;3372;48.690;12.362;2022-09-17T04:13:10;12.10;51.80
6672;DHT22;3372;48.690;12.362;2022-09-17T04:15:36;12.00;51.20
6672;DHT22;3372;48.690;12.362;2022-09-17T04:18:02;12.10;51.20
6672;DHT22;3372;48.690;12.362;2022-09-17T04:20:28;12.10;50.50
6672;DHT22;3372;48.690;12.362;2022-09-17T04:22:54;11.80;51.00
6672;DHT22;3372;48.690;12.362;2022-09-17T04:25:19;11.90;51.60
6672;DHT22;3372;48.690;12.362;2022-09-17T04:27:45;11.80;51.50
6672;DHT22;3372;48.690;12.362;2022-09-17T04:30:12;11.90;52.40
6672;DHT22;3372;48.690;12.362;2022-09-17T04:32:38;12.00;51.80
6672;DHT22;3372;48.690;12.362;2022-09-17T04:35:04;11.70;51.00
6672;DHT22;3372;48.690;12.362;2022-09-17T04:37:30;11.70;52.60
6672;DHT22;3372;48.690;12.362;2022-09-17T04:39:55;11.80;52.20
6672;DHT22;3372;48.690;12.362;2022-09-17T04:42:21;11.90;51.90
6672;DHT22;3372;48.690;12.362;2022-09-17T04:44:47;12.00;52.00
6672;DHT22;3372;48.690;12.362;2022-09-17T04:47:12;11.90;51.10
6672;DHT22;3372;48.690;12.362;2022-09-17T04:49:38;12.00;50.90
6672;DHT22;3372;48.690;12.362;2022-09-17T04:52:04;12.10;51.20
6672;DHT22;3372;48.690;12.362;2022-09-17T04:54:29;12.00;51.10
6672;DHT22;3372;48.690;12.362;2022-09-17T04:56:55;11.80;51.00
6672;DHT22;3372;48.690;12.362;2022-09-17T04:59:20;11.90;51.10
6672;DHT22;3372;48.690;12.362;2022-09-17T05:01:46;11.90;51.10
6672;DHT22;3372;48.690;12.362;2022-09-17T05:04:11;11.90;50.70
6672;DHT22;3372;48.690;12.362;2022-09-17T05:06:37;11.90;50.80
6672;DHT22;3372;48.690;12.362;2022-09-17T05:09:02;11.90;51.10
6672;DHT22;3372;48.690;12.362;2022-09-17T05:11:28;11.90;51.10
6672;DHT22;3372;48.690;12.362;2022-09-17T05:13:54;12.00;51.20
6672;DHT22;3372;48.690;12.362;2022-09-17T05:16:19;12.10;50.60
6672;DHT22;3372;48.690;12.362;2022-09-17T05:18:45;12.10;49.50
6672;DHT22;3372;48.690;12.362;2022-09-17T05:21:11;12.00;50.00
6672;DHT22;3372;48.690;12.362;2022-09-17T05:23:37;12.10;49.10
6672;DHT22;3372;48.690;12.362;2022-09-17T05:26:03;12.00;49.40
6672;DHT22;3372;48.690;12.362;2022-09-17T05:28:28;11.90;48.40
6672;DHT22;3372;48.690;12.362;2022-09-17T05:30:58;11.90;49.30
6672;DHT22;3372;48.690;12.362;2022-09-17T05:33:24;12.00;49.30
6672;DHT22;3372;48.690;12.362;2022-09-17T05:35:49;12.00;49.50
6672;DHT22;3372;48.690;12.362;2022-09-17T05:38:15;12.10;49.60
6672;DHT22;3372;48.690;12.362;2022-09-17T05:40:43;12.00;48.70
6672;DHT22;3372;48.690;12.362;2022-09-17T05:43:08;11.90;48.30
6672;DHT22;3372;48.690;12.362;2022-09-17T05:45:35;11.80;49.60
6672;DHT22;3372;48.690;12.362;2022-09-17T05:48:03;11.80;48.00
6672;DHT22;3372;48.690;12.362;2022-09-17T05:50:30;11.90;50.20
6672;DHT22;3372;48.690;12.362;2022-09-17T05:52:56;11.90;49.90
6672;DHT22;3372;48.690;12.362;2022-09-17T05:55:22;11.90;49.00
6672;DHT22;3372;48.690;12.362;2022-09-17T05:57:49;12.10;50.00
6672;DHT22;3372;48.690;12.362;2022-09-17T06:00:15;11.90;47.50
6672;DHT22;3372;48.690;12.362;2022-09-17T06:02:41;11.90;46.80
6672;DHT22;3372;48.690;12.362;2022-09-17T06:05:07;12.00;47.80
6672;DHT22;3372;48.690;12.362;2022-09-17T06:07:37;11.90;47.60
6672;DHT22;3372;48.690;12.362;2022-09-17T06:10:05;11.80;48.20
6672;DHT22;3372;48.690;12.362;2022-09-17T06:12:31;11.90;48.00
6672;DHT22;3372;48.690;12.362;2022-09-17T06:14:59;11.90;47.50
6672;DHT22;3372;48.690;12.362;2022-09-17T06:17:25;12.00;47.90
6672;DHT22;3372;48.690;12.362;2022-09-17T06:19:50;12.10;48.40
6672;DHT22;3372;48.690;12.362;2022-09-17T06:22:17;12.10;47.70
6672;DHT22;3372;48.690;12.362;2022-09-17T06:24:44;12.20;45.90
6672;DHT22;3372;48.690;12.362;2022-09-17T06:27:09;12.00;46.20
6672;DHT22;3372;48.690;12.362;2022-09-17T06:29:35;12.10;46.30
6672;DHT22;3372;48.690;12.362;2022-09-17T06:32:00;12.20;46.20
6672;DHT22;3372;48.690;12.362;2022-09-17T06:34:27;12.30;46.80
6672;DHT22;3372;48.690;12.362;2022-09-17T06:36:52;12.40;46.50
6672;DHT22;3372;48.690;12.362;2022-09-17T06:39:18;12.40;45.80
6672;DHT22;3372;48.690;12.362;2022-09-17T06:41:44;12.50;45.90
6672;DHT22;3372;48.690;12.362;2022-09-17T06:44:10;12.30;45.70
6672;DHT22;3372;48.690;12.362;2022-09-17T06:46:36;12.10;45.60
6672;DHT22;3372;48.690;12.362;2022-09-17T06:49:01;12.20;46.90
6672;DHT22;3372;48.690;12.362;2022-09-17T06:51:27;12.10;45.80
6672;DHT22;3372;48.690;12.362;2022-09-17T06:53:52;12.10;46.70
6672;DHT22;3372;48.690;12.362;2022-09-17T06:56:18;12.20;46.90
6672;DHT22;3372;48.690;12.362;2022-09-17T06:58:43;12.30;45.70
6672;DHT22;3372;48.690;12.362;2022-09-17T07:01:10;12.50;46.20
6672;DHT22;3372;48.690;12.362;2022-09-17T07:03:36;12.60;44.70
6672;DHT22;3372;48.690;12.362;2022-09-17T07:06:03;12.60;42.90
6672;DHT22;3372;48.690;12.362;2022-09-17T07:08:34;12.20;42.70
6672;DHT22;3372;48.690;12.362;2022-09-17T07:10:59;11.90;44.30
6672;DHT22;3372;48.690;12.362;2022-09-17T07:13:25;12.00;45.60
6672;DHT22;3372;48.690;12.362;2022-09-17T07:15:52;12.20;45.70
6672;DHT22;3372;48.690;12.362;2022-09-17T07:18:18;12.10;45.40
6672;DHT22;3372;48.690;12.362;2022-09-17T07:20:50;12.10;44.70
6672;DHT22;3372;48.690;12.362;2022-09-17T07:23:17;12.40;43.80
6672;DHT22;3372;48.690;12.362;2022-09-17T07:25:42;12.10;43.30
6672;DHT22;3372;48.690;12.362;2022-09-17T07:28:08;11.90;45.20
6672;DHT22;3372;48.690;12.362;2022-09-17T07:30:33;12.10;43.60
6672;DHT22;3372;48.690;12.362;2022-09-17T07:33:00;12.40;43.30
6672;DHT22;3372;48.690;12.362;2022-09-17T07:35:26;12.20;44.20
6672;DHT22;3372;48.690;12.362;2022-09-17T07:37:52;12.20;43.30
6672;DHT22;3372;48.690;12.362;2022-09-17T07:40:18;12.20;43.40
6672;DHT22;3372;48.690;12.362;2022-09-17T07:42:44;12.40;44.20
6672;DHT22;3372;48.690;12.362;2022-09-17T07:45:10;12.30;42.20
6672;DHT22;3372;48.690;12.362;2022-09-17T07:47:39;12.30;43.40
6672;DHT22;3372;48.690;12.362;2022-09-17T07:50:06;12.30;43.90
6672;DHT22;3372;48.690;12.362;2022-09-17T07:52:32;12.10;46.10
6672;DHT22;3372;48.690;12.362;2022-09-17T07:54:58;12.20;44.60
6672;DHT22;3372;48.690;12.362;2022-09-17T07:57:23;12.30;44.80
6672;DHT22;3372;48.690;12.362;2022-09-17T07:59:49;12.50;45.30
6672;DHT22;3372;48.690;12.362;2022-09-17T08:02:15;12.50;42.70
6672;DHT22;3372;48.690;12.362;2022-09-17T08:04:41;12.30;44.30
6672;DHT22;3372;48.690;12.362;2022-09-17T08:07:10;12.40;44.40
6672;DHT22;3372;48.690;12.362;2022-09-17T08:09:37;12.50;43.40
6672;DHT22;3372;48.690;12.362;2022-09-17T08:12:03;12.20;44.60
6672;DHT22;3372;48.690;12.362;2022-09-17T08:14:28;12.20;45.10
6672;DHT22;3372;48.690;12.362;2022-09-17T08:16:54;12.30;45.90
6672;DHT22;3372;48.690;12.362;2022-09-17T08:19:19;12.50;45.90
6672;DHT22;3372;48.690;12.362;2022-09-17T08:21:45;12.40;45.80
6672;DHT22;3372;48.690;12.362;2022-09-17T08:24:11;12.50;45.70
6672;DHT22;3372;48.690;12.362;2022-09-17T08:26:36;12.30;48.40
6672;DHT22;3372;48.690;12.362;2022-09-17T08:29:03;12.40;48.70
6672;DHT22;3372;48.690;12.362;2022-09-17T08:31:29;12.60;50.30
6672;DHT22;3372;48.690;12.362;2022-09-17T08:33:57;12.70;49.80
6672;DHT22;3372;48.690;12.362;2022-09-17T08:36:24;12.70;48.70
6672;DHT22;3372;48.690;12.362;2022-09-17T08:38:54;12.50;48.40
6672;DHT22;3372;48.690;12.362;2022-09-17T08:44:45;12.20;48.80
6672;DHT22;3372;48.690;12.362;2022-09-17T08:47:27;12.20;50.30
6672;DHT22;3372;48.690;12.362;2022-09-17T08:50:02;12.20;49.90
6672;DHT22;3372;48.690;12.362;2022-09-17T08:55:27;12.30;51.20
6672;DHT22;3372;48.690;12.362;2022-09-17T09:00:51;12.50;51.70
6672;DHT22;3372;48.690;12.362;2022-09-17T09:06:04;12.50;51.70
6672;DHT22;3372;48.690;12.362;2022-09-17T09:08:33;12.40;52.30
6672;DHT22;3372;48.690;12.362;2022-09-17T09:11:04;12.50;52.10
6672;DHT22;3372;48.690;12.362;2022-09-17T09:14:00;12.40;50.80
6672;DHT22;3372;48.690;12.362;2022-09-17T09:16:32;12.50;50.40
6672;DHT22;3372;48.690;12.362;2022-09-17T09:19:23;12.30;51.50
6672;DHT22;3372;48.690;12.362;2022-09-17T09:24:58;12.00;52.00
6672;DHT22;3372;48.690;12.362;2022-09-17T09:30:22;12.00;55.60
6672;DHT22;3372;48.690;12.362;2022-09-17T09:33:09;12.20;55.80
6672;DHT22;3372;48.690;12.362;2022-09-17T09:35:41;12.40;56.50
6672;DHT22;3372;48.690;12.362;2022-09-17T09:38:32;12.50;55.60
6672;DHT22;3372;48.690;12.362;2022-09-17T09:41:22;12.30;58.90
6672;DHT22;3372;48.690;12.362;2022-09-17T09:43:55;12.10;57.70
6672;DHT22;3372;48.690;12.362;2022-09-17T09:57:55;11.70;55.40
6672;DHT22;3372;48.690;12.362;2022-09-17T10:06:07;11.00;58.60
6672;DHT22;3372;48.690;12.362;2022-09-17T10:08:41;11.10;62.80
6672;DHT22;3372;48.690;12.362;2022-09-17T10:11:19;11.20;61.60
6672;DHT22;3372;48.690;12.362;2022-09-17T10:13:45;11.30;60.90
6672;DHT22;3372;48.690;12.362;2022-09-17T10:16:22;11.40;60.40
6672;DHT22;3372;48.690;12.362;2022-09-17T10:21:31;11.40;60.60
6672;DHT22;3372;48.690;12.362;2022-09-17T10:23:58;11.40;60.70
6672;DHT22;3372;48.690;12.362;2022-09-17T10:26:33;11.20;63.30
6672;DHT22;3372;48.690;12.362;2022-09-17T10:29:04;11.10;65.60
6672;DHT22;3372;48.690;12.362;2022-09-17T10:31:53;11.10;65.30
6672;DHT22;3372;48.690;12.362;2022-09-17T10:34:27;11.20;67.40
6672;DHT22;3372;48.690;12.362;2022-09-17T10:36:53;11.20;68.70
6672;DHT22;3372;48.690;12.362;2022-09-17T10:39:36;11.30;67.40
6672;DHT22;3372;48.690;12.362;2022-09-17T10:42:18;11.50;66.40
6672;DHT22;3372;48.690;12.362;2022-09-17T10:44:52;11.60;68.40
6672;DHT22;3372;48.690;12.362;2022-09-17T10:47:28;11.50;66.80
6672;DHT22;3372;48.690;12.362;2022-09-17T10:52:35;11.70;71.50
6672;DHT22;3372;48.690;12.362;2022-09-17T10:58:01;12.20;68.60
6672;DHT22;3372;48.690;12.362;2022-09-17T11:14:33;12.60;64.30
6672;DHT22;3372;48.690;12.362;2022-09-17T11:22:50;12.70;67.70
6672;DHT22;3372;48.690;12.362;2022-09-17T11:34:34;13.30;65.00
6672;DHT22;3372;48.690;12.362;2022-09-17T11:37:21;13.10;61.90
6672;DHT22;3372;48.690;12.362;2022-09-17T11:39:56;13.20;63.30
6672;DHT22;3372;48.690;12.362;2022-09-17T11:45:31;12.60;59.70
6672;DHT22;3372;48.690;12.362;2022-09-17T11:48:06;12.60;62.30
6672;DHT22;3372;48.690;12.362;2022-09-17T11:50:57;12.70;60.90
6672;DHT22;3372;48.690;12.362;2022-09-17T11:53:39;12.80;61.60
6672;DHT22;3372;48.690;12.362;2022-09-17T11:56:19;12.90;60.20
6672;DHT22;3372;48.690;12.362;2022-09-17T11:58:54;12.80;59.90
6672;DHT22;3372;48.690;12.362;2022-09-17T12:01:31;13.10;61.60
6672;DHT22;3372;48.690;12.362;2022-09-17T12:04:01;13.30;59.30
6672;DHT22;3372;48.690;12.362;2022-09-17T12:06:45;13.60;59.00
6672;DHT22;3372;48.690;12.362;2022-09-17T12:09:17;13.40;53.50
6672;DHT22;3372;48.690;12.362;2022-09-17T12:11:51;13.40;54.60
6672;DHT22;3372;48.690;12.362;2022-09-17T12:14:30;13.30;52.10
6672;DHT22;3372;48.690;12.362;2022-09-17T12:17:02;13.40;55.10
6672;DHT22;3372;48.690;12.362;2022-09-17T12:19:36;13.60;52.70
6672;DHT22;3372;48.690;12.362;2022-09-17T12:22:12;13.70;52.70
6672;DHT22;3372;48.690;12.362;2022-09-17T12:24:39;13.80;53.00
6672;DHT22;3372;48.690;12.362;2022-09-17T12:40:33;13.60;39.70
6672;DHT22;3372;48.690;12.362;2022-09-17T12:44:04;13.80;40.60
6672;DHT22;3372;48.690;12.362;2022-09-17T12:48:42;14.00;40.10
6672;DHT22;3372;48.690;12.362;2022-09-17T12:54:09;14.00;38.80
6672;DHT22;3372;48.690;12.362;2022-09-17T12:57:11;14.20;35.40
6672;DHT22;3372;48.690;12.362;2022-09-17T12:59:58;14.00;34.70
6672;DHT22;3372;48.690;12.362;2022-09-17T13:02:32;14.20;36.30
6672;DHT22;3372;48.690;12.362;2022-09-17T13:10:32;14.30;35.50
6672;DHT22;3372;48.690;12.362;2022-09-17T13:21:29;14.40;32.70
6672;DHT22;3372;48.690;12.362;2022-09-17T13:23:57;14.30;30.60
6672;DHT22;3372;48.690;12.362;2022-09-17T13:26:34;14.10;33.40
6672;DHT22;3372;48.690;12.362;2022-09-17T13:29:00;14.00;36.10
6672;DHT22;3372;48.690;12.362;2022-09-17T13:34:30;14.10;35.40
6672;DHT22;3372;48.690;12.362;2022-09-17T13:37:03;14.10;36.20
6672;DHT22;3372;48.690;12.362;2022-09-17T13:39:53;14.10;35.90
6672;DHT22;3372;48.690;12.362;2022-09-17T13:42:42;14.00;36.20
6672;DHT22;3372;48.690;12.362;2022-09-17T13:45:09;14.10;39.70
6672;DHT22;3372;48.690;12.362;2022-09-17T13:47:59;14.40;40.30
6672;DHT22;3372;48.690;12.362;2022-09-17T13:50:42;14.40;39.20
6672;DHT22;3372;48.690;12.362;2022-09-17T14:21:42;14.40;34.00
6672;DHT22;3372;48.690;12.362;2022-09-17T14:24:28;14.50;34.60
6672;DHT22;3372;48.690;12.362;2022-09-17T14:31:56;14.30;38.70
6672;DHT22;3372;48.690;12.362;2022-09-17T14:34:24;14.20;38.80
6672;DHT22;3372;48.690;12.362;2022-09-17T14:36:52;14.30;40.50
6672;DHT22;3372;48.690;12.362;2022-09-17T14:39:27;14.00;39.10
6672;DHT22;3372;48.690;12.362;2022-09-17T14:41:54;13.80;37.40
6672;DHT22;3372;48.690;12.362;2022-09-17T14:44:23;13.90;39.40
6672;DHT22;3372;48.690;12.362;2022-09-17T14:47:00;14.00;41.00
6672;DHT22;3372;48.690;12.362;2022-09-17T14:49:35;14.00;42.40
6672;DHT22;3372;48.690;12.362;2022-09-17T14:52:05;13.90;42.70
6672;DHT22;3372;48.690;12.362;2022-09-17T14:54:42;14.10;44.90
6672;DHT22;3372;48.690;12.362;2022-09-17T14:59:55;13.60;43.00
6672;DHT22;3372;48.690;12.362;2022-09-17T15:07:47;13.00;40.60
6672;DHT22;3372;48.690;12.362;2022-09-17T15:10:20;13.00;43.00
6672;DHT22;3372;48.690;12.362;2022-09-17T15:12:47;13.20;41.30
6672;DHT22;3372;48.690;12.362;2022-09-17T15:15:19;13.10;42.00
6672;DHT22;3372;48.690;12.362;2022-09-17T15:17:45;13.10;43.20
6672;DHT22;3372;48.690;12.362;2022-09-17T15:20:17;13.30;42.80
6672;DHT22;3372;48.690;12.362;2022-09-17T15:22:46;12.90;41.60
6672;DHT22;3372;48.690;12.362;2022-09-17T15:25:20;13.10;43.00
6672;DHT22;3372;48.690;12.362;2022-09-17T15:27:53;12.90;43.30
6672;DHT22;3372;48.690;12.362;2022-09-17T15:30:22;13.10;43.30
6672;DHT22;3372;48.690;12.362;2022-09-17T15:32:52;13.20;43.00
6672;DHT22;3372;48.690;12.362;2022-09-17T15:35:23;13.30;42.90
6672;DHT22;3372;48.690;12.362;2022-09-17T15:37:51;13.40;41.40
6672;DHT22;3372;48.690;12.362;2022-09-17T15:40:33;13.30;41.30
6672;DHT22;3372;48.690;12.362;2022-09-17T15:45:46;13.50;42.90
6672;DHT22;3372;48.690;12.362;2022-09-17T15:48:37;13.40;41.30
6672;DHT22;3372;48.690;12.362;2022-09-17T15:51:11;13.30;41.30
6672;DHT22;3372;48.690;12.362;2022-09-17T15:53:50;13.30;42.60
6672;DHT22;3372;48.690;12.362;2022-09-17T15:56:19;13.30;41.60
6672;DHT22;3372;48.690;12.362;2022-09-17T16:08:53;12.40;46.40
6672;DHT22;3372;48.690;12.362;2022-09-17T16:11:24;12.40;45.40
6672;DHT22;3372;48.690;12.362;2022-09-17T16:13:52;12.70;45.70
6672;DHT22;3372;48.690;12.362;2022-09-17T16:16:33;12.50;47.40
6672;DHT22;3372;48.690;12.362;2022-09-17T16:18:59;12.70;47.80
6672;DHT22;3372;48.690;12.362;2022-09-17T16:21:25;12.70;46.80
6672;DHT22;3372;48.690;12.362;2022-09-17T16:23:50;12.70;47.40
6672;DHT22;3372;48.690;12.362;2022-09-17T16:26:20;12.80;45.70
6672;DHT22;3372;48.690;12.362;2022-09-17T16:28:49;12.60;45.30
6672;DHT22;3372;48.690;12.362;2022-09-17T16:31:18;12.90;46.20
6672;DHT22;3372;48.690;12.362;2022-09-17T16:33:44;12.90;45.50
6672;DHT22;3372;48.690;12.362;2022-09-17T16:36:09;12.90;44.20
6672;DHT22;3372;48.690;12.362;2022-09-17T16:38:35;12.70;45.70
6672;DHT22;3372;48.690;12.362;2022-09-17T16:41:03;12.80;47.10
6672;DHT22;3372;48.690;12.362;2022-09-17T16:43:29;13.00;46.60
6672;DHT22;3372;48.690;12.362;2022-09-17T16:46:04;13.00;46.50
6672;DHT22;3372;48.690;12.362;2022-09-17T16:48:30;13.10;45.60
6672;DHT22;3372;48.690;12.362;2022-09-17T16:50:57;13.10;45.50
6672;DHT22;3372;48.690;12.362;2022-09-17T16:53:22;13.10;45.30
6672;DHT22;3372;48.690;12.362;2022-09-17T16:55:48;13.00;45.00
6672;DHT22;3372;48.690;12.362;2022-09-17T16:58:14;13.10;44.60
6672;DHT22;3372;48.690;12.362;2022-09-17T17:00:42;13.00;44.10
6672;DHT22;3372;48.690;12.362;2022-09-17T17:03:11;13.10;44.80
6672;DHT22;3372;48.690;12.362;2022-09-17T17:05:37;13.00;44.00
6672;DHT22;3372;48.690;12.362;2022-09-17T17:08:03;12.70;45.10
6672;DHT22;3372;48.690;12.362;2022-09-17T17:10:29;12.70;46.00
6672;DHT22;3372;48.690;12.362;2022-09-17T17:12:55;12.80;46.00
6672;DHT22;3372;48.690;12.362;2022-09-17T17:15:21;12.80;45.90
6672;DHT22;3372;48.690;12.362;2022-09-17T17:17:48;12.30;46.80
6672;DHT22;3372;48.690;12.362;2022-09-17T17:20:14;12.50;47.10
6672;DHT22;3372;48.690;12.362;2022-09-17T17:22:41;12.50;46.60
6672;DHT22;3372;48.690;12.362;2022-09-17T17:25:09;12.50;47.40
6672;DHT22;3372;48.690;12.362;2022-09-17T17:27:35;12.30;47.30
6672;DHT22;3372;48.690;12.362;2022-09-17T17:30:01;12.40;47.60
6672;DHT22;3372;48.690;12.362;2022-09-17T17:32:33;12.30;47.50
6672;DHT22;3372;48.690;12.362;2022-09-17T17:34:59;12.20;47.20
6672;DHT22;3372;48.690;12.362;2022-09-17T17:37:25;12.30;47.90
6672;DHT22;3372;48.690;12.362;2022-09-17T17:39:51;12.30;47.50
6672;DHT22;3372;48.690;12.362;2022-09-17T17:42:18;12.00;47.20
6672;DHT22;3372;48.690;12.362;2022-09-17T17:44:44;12.20;47.50
6672;DHT22;3372;48.690;12.362;2022-09-17T17:47:09;12.10;46.20
6672;DHT22;3372;48.690;12.362;2022-09-17T17:49:35;12.10;47.60
6672;DHT22;3372;48.690;12.362;2022-09-17T17:52:01;12.20;47.10
6672;DHT22;3372;48.690;12.362;2022-09-17T17:54:27;12.20;46.60
6672;DHT22;3372;48.690;12.362;2022-09-17T17:56:54;12.00;46.90
6672;DHT22;3372;48.690;12.362;2022-09-17T17:59:19;12.20;46.80
6672;DHT22;3372;48.690;12.362;2022-09-17T18:01:45;12.30;45.90
6672;DHT22;3372;48.690;12.362;2022-09-17T18:04:11;12.30;46.00
6672;DHT22;3372;48.690;12.362;2022-09-17T18:06:36;12.50;45.80
6672;DHT22;3372;48.690;12.362;2022-09-17T18:09:03;12.20;46.40
6672;DHT22;3372;48.690;12.362;2022-09-17T18:11:29;12.30;46.00
6672;DHT22;3372;48.690;12.362;2022-09-17T18:13:57;12.10;45.90
6672;DHT22;3372;48.690;12.362;2022-09-17T18:16:25;12.20;46.60
6672;DHT22;3372;48.690;12.362;2022-09-17T18:18:51;12.20;46.80
6672;DHT22;3372;48.690;12.362;2022-09-17T18:21:21;11.90;46.50
6672;DHT22;3372;48.690;12.362;2022-09-17T18:23:48;12.00;46.90
6672;DHT22;3372;48.690;12.362;2022-09-17T18:26:16;12.00;47.00
6672;DHT22;3372;48.690;12.362;2022-09-17T18:28:43;12.10;46.10
6672;DHT22;3372;48.690;12.362;2022-09-17T18:31:29;12.10;46.10
6672;DHT22;3372;48.690;12.362;2022-09-17T18:36:30;12.00;46.00
6672;DHT22;3372;48.690;12.362;2022-09-17T18:38:58;11.90;47.20
6672;DHT22;3372;48.690;12.362;2022-09-17T18:41:28;12.00;46.70
6672;DHT22;3372;48.690;12.362;2022-09-17T18:43:54;11.80;46.00
6672;DHT22;3372;48.690;12.362;2022-09-17T18:46:20;11.90;47.10
6672;DHT22;3372;48.690;12.362;2022-09-17T18:48:54;11.60;46.70
6672;DHT22;3372;48.690;12.362;2022-09-17T18:51:21;11.60;47.30
6672;DHT22;3372;48.690;12.362;2022-09-17T18:53:48;11.70;47.80
6672;DHT22;3372;48.690;12.362;2022-09-17T18:56:20;11.80;47.00
6672;DHT22;3372;48.690;12.362;2022-09-17T18:58:48;11.80;46.70
6672;DHT22;3372;48.690;12.362;2022-09-17T19:01:14;11.90;46.10
6672;DHT22;3372;48.690;12.362;2022-09-17T19:03:40;11.80;46.20
6672;DHT22;3372;48.690;12.362;2022-09-17T19:06:07;11.90;46.00
6672;DHT22;3372;48.690;12.362;2022-09-17T19:08:34;11.90;46.40
6672;DHT22;3372;48.690;12.362;2022-09-17T19:11:00;12.00;45.80
6672;DHT22;3372;48.690;12.362;2022-09-17T19:13:32;11.80;45.60
6672;DHT22;3372;48.690;12.362;2022-09-17T19:15:58;11.50;47.60
6672;DHT22;3372;48.690;12.362;2022-09-17T19:18:25;11.70;47.90
6672;DHT22;3372;48.690;12.362;2022-09-17T19:20:50;11.70;47.50
6672;DHT22;3372;48.690;12.362;2022-09-17T19:23:16;11.70;48.30
6672;DHT22;3372;48.690;12.362;2022-09-17T19:25:41;11.70;47.70
6672;DHT22;3372;48.690;12.362;2022-09-17T19:28:07;11.60;48.60